sensor_id;sensor_type;location;lat;lon;timestamp;pressure;altitude;pressure_sealevel;temperature;humidity
41306;BME280;27051;50.376;19.152;2023-03-08T00:02:08;96325.14;;;5.63;57.48
41306;BME280;27051;50.376;19.152;2023-03-08T00:04:34;96329.08;;;5.62;57.67
41306;BME280;27051;50.376;19.152;2023-03-08T00:07:01;96326.92;;;5.62;57.47
41306;BME280;27051;50.376;19.152;2023-03-08T00:09:27;96328.04;;;5.61;57.94
41306;BME280;27051;50.376;19.152;2023-03-08T00:11:54;96324.97;;;5.59;57.62
41306;BME280;27051;50.376;19.152;2023-03-08T00:14:21;96327.73;;;5.57;57.87
41306;BME280;27051;50.376;19.152;2023-03-08T00:16:47;96320.16;;;5.51;57.92
41306;BME280;27051;50.376;19.152;2023-03-08T00:19:13;96325.17;;;5.55;58.20
41306;BME280;27051;50.376;19.152;2023-03-08T00:21:40;96331.83;;;5.59;58.05
41306;BME280;27051;50.376;19.152;2023-03-08T00:24:07;96331.17;;;5.60;57.96
41306;BME280;27051;50.376;19.152;2023-03-08T00:26:33;96335.75;;;5.61;58.18
41306;BME280;27051;50.376;19.152;2023-03-08T00:28:59;96329.55;;;5.60;57.86
41306;BME280;27051;50.376;19.152;2023-03-08T00:31:26;96334.71;;;5.59;57.95
41306;BME280;27051;50.376;19.152;2023-03-08T00:33:53;96336.93;;;5.59;57.68
41306;BME280;27051;50.376;19.152;2023-03-08T00:36:20;96338.46;;;5.60;57.90
41306;BME280;27051;50.376;19.152;2023-03-08T00:38:47;96336.39;;;5.59;57.83
41306;BME280;27051;50.376;19.152;2023-03-08T00:41:14;96333.29;;;5.56;57.84
41306;BME280;27051;50.376;19.152;2023-03-08T00:43:41;96329.36;;;5.47;58.12
41306;BME280;27051;50.376;19.152;2023-03-08T00:46:08;96328.06;;;5.47;57.91
41306;BME280;27051;50.376;19.152;2023-03-08T00:48:35;96330.79;;;5.53;57.98
41306;BME280;27051;50.376;19.152;2023-03-08T00:51:01;96331.05;;;5.55;58.02
41306;BME280;27051;50.376;19.152;2023-03-08T00:53:28;96333.03;;;5.55;58.02
41306;BME280;27051;50.376;19.152;2023-03-08T00:55:56;96331.45;;;5.56;57.96
41306;BME280;27051;50.376;19.152;2023-03-08T00:58:25;96333.70;;;5.58;58.11
41306;BME280;27051;50.376;19.152;2023-03-08T01:00:52;96328.64;;;5.59;57.61
41306;BME280;27051;50.376;19.152;2023-03-08T01:03:20;96328.55;;;5.58;57.75
41306;BME280;27051;50.376;19.152;2023-03-08T01:05:49;96329.59;;;5.58;57.91
41306;BME280;27051;50.376;19.152;2023-03-08T01:08:17;96333.97;;;5.56;57.76
41306;BME280;27051;50.376;19.152;2023-03-08T01:10:52;96329.56;;;5.53;57.86
41306;BME280;27051;50.376;19.152;2023-03-08T01:13:20;96330.85;;;5.52;57.88
41306;BME280;27051;50.376;19.152;2023-03-08T01:15:46;96327.80;;;5.49;57.85
41306;BME280;27051;50.376;19.152;2023-03-08T01:18:13;96327.30;;;5.47;57.93
41306;BME280;27051;50.376;19.152;2023-03-08T01:20:39;96328.70;;;5.40;58.13
41306;BME280;27051;50.376;19.152;2023-03-08T01:23:06;96322.20;;;5.32;57.97
41306;BME280;27051;50.376;19.152;2023-03-08T01:25:33;96323.12;;;5.36;57.83
41306;BME280;27051;50.376;19.152;2023-03-08T01:27:59;96321.56;;;5.45;57.75
41306;BME280;27051;50.376;19.152;2023-03-08T01:30:26;96322.33;;;5.49;57.95
41306;BME280;27051;50.376;19.152;2023-03-08T01:32:53;96318.23;;;5.49;57.79
41306;BME280;27051;50.376;19.152;2023-03-08T01:35:19;96320.50;;;5.45;57.77
41306;BME280;27051;50.376;19.152;2023-03-08T01:37:49;96324.04;;;5.44;57.75
41306;BME280;27051;50.376;19.152;2023-03-08T01:40:16;96327.52;;;5.39;57.72
41306;BME280;27051;50.376;19.152;2023-03-08T01:42:42;96320.07;;;5.36;57.82
41306;BME280;27051;50.376;19.152;2023-03-08T01:48:14;96316.67;;;5.30;57.77
41306;BME280;27051;50.376;19.152;2023-03-08T01:50:43;96312.05;;;5.28;57.71
41306;BME280;27051;50.376;19.152;2023-03-08T01:53:11;96309.07;;;5.27;57.75
41306;BME280;27051;50.376;19.152;2023-03-08T01:55:38;96307.95;;;5.25;57.54
41306;BME280;27051;50.376;19.152;2023-03-08T01:58:04;96309.98;;;5.23;57.67
41306;BME280;27051;50.376;19.152;2023-03-08T02:00:30;96307.25;;;5.21;57.58
41306;BME280;27051;50.376;19.152;2023-03-08T02:03:00;96309.96;;;5.19;57.52
41306;BME280;27051;50.376;19.152;2023-03-08T02:05:29;96303.98;;;5.10;57.80
41306;BME280;27051;50.376;19.152;2023-03-08T02:07:55;96306.02;;;5.11;57.70
41306;BME280;27051;50.376;19.152;2023-03-08T02:10:22;96308.85;;;5.17;57.73
41306;BME280;27051;50.376;19.152;2023-03-08T02:12:49;96313.02;;;5.20;57.61
41306;BME280;27051;50.376;19.152;2023-03-08T02:15:18;96314.70;;;5.20;57.76
41306;BME280;27051;50.376;19.152;2023-03-08T02:17:45;96310.38;;;5.20;57.56
41306;BME280;27051;50.376;19.152;2023-03-08T02:20:16;96315.00;;;5.20;57.54
41306;BME280;27051;50.376;19.152;2023-03-08T02:22:44;96319.97;;;5.18;57.43
41306;BME280;27051;50.376;19.152;2023-03-08T02:25:20;96322.86;;;5.11;57.61
41306;BME280;27051;50.376;19.152;2023-03-08T02:27:48;96321.10;;;5.03;57.58
41306;BME280;27051;50.376;19.152;2023-03-08T02:30:17;96325.27;;;4.99;57.57
41306;BME280;27051;50.376;19.152;2023-03-08T02:32:44;96325.77;;;4.94;57.49
41306;BME280;27051;50.376;19.152;2023-03-08T02:35:10;96332.89;;;4.90;57.67
41306;BME280;27051;50.376;19.152;2023-03-08T02:37:36;96330.64;;;4.85;57.60
41306;BME280;27051;50.376;19.152;2023-03-08T02:40:03;96332.04;;;4.80;57.75
41306;BME280;27051;50.376;19.152;2023-03-08T02:42:30;96336.86;;;4.78;57.71
41306;BME280;27051;50.376;19.152;2023-03-08T02:44:56;96345.75;;;4.74;57.85
41306;BME280;27051;50.376;19.152;2023-03-08T02:47:23;96345.37;;;4.69;57.63
41306;BME280;27051;50.376;19.152;2023-03-08T02:49:49;96348.83;;;4.64;57.84
41306;BME280;27051;50.376;19.152;2023-03-08T02:52:16;96349.03;;;4.60;58.04
41306;BME280;27051;50.376;19.152;2023-03-08T02:54:42;96352.58;;;4.62;57.97
41306;BME280;27051;50.376;19.152;2023-03-08T02:57:09;96361.12;;;4.69;57.85
41306;BME280;27051;50.376;19.152;2023-03-08T02:59:35;96358.95;;;4.73;57.76
41306;BME280;27051;50.376;19.152;2023-03-08T03:02:01;96361.71;;;4.77;57.76
41306;BME280;27051;50.376;19.152;2023-03-08T03:04:32;96367.27;;;4.81;57.64
41306;BME280;27051;50.376;19.152;2023-03-08T03:06:59;96378.71;;;4.82;57.76
41306;BME280;27051;50.376;19.152;2023-03-08T03:09:26;96382.06;;;4.83;57.62
41306;BME280;27051;50.376;19.152;2023-03-08T03:11:53;96389.35;;;4.85;57.57
41306;BME280;27051;50.376;19.152;2023-03-08T03:14:19;96398.02;;;4.85;57.49
41306;BME280;27051;50.376;19.152;2023-03-08T03:16:46;96406.26;;;4.86;57.63
41306;BME280;27051;50.376;19.152;2023-03-08T03:19:13;96405.18;;;4.85;57.50
41306;BME280;27051;50.376;19.152;2023-03-08T03:21:40;96406.04;;;4.86;57.57
41306;BME280;27051;50.376;19.152;2023-03-08T03:24:06;96402.95;;;4.87;57.59
41306;BME280;27051;50.376;19.152;2023-03-08T03:26:33;96410.14;;;4.86;57.58
41306;BME280;27051;50.376;19.152;2023-03-08T03:28:59;96410.98;;;4.83;57.61
41306;BME280;27051;50.376;19.152;2023-03-08T03:31:26;96413.33;;;4.83;57.75
41306;BME280;27051;50.376;19.152;2023-03-08T03:33:52;96417.93;;;4.85;57.64
41306;BME280;27051;50.376;19.152;2023-03-08T03:36:21;96416.87;;;4.85;57.68
41306;BME280;27051;50.376;19.152;2023-03-08T03:38:48;96417.32;;;4.84;57.55
41306;BME280;27051;50.376;19.152;2023-03-08T03:41:16;96419.11;;;4.83;57.60
41306;BME280;27051;50.376;19.152;2023-03-08T03:43:44;96423.20;;;4.83;57.57
41306;BME280;27051;50.376;19.152;2023-03-08T03:46:13;96423.98;;;4.83;57.60
41306;BME280;27051;50.376;19.152;2023-03-08T03:48:40;96425.80;;;4.76;57.88
41306;BME280;27051;50.376;19.152;2023-03-08T03:51:15;96433.25;;;4.79;57.74
41306;BME280;27051;50.376;19.152;2023-03-08T03:53:42;96431.46;;;4.84;57.69
41306;BME280;27051;50.376;19.152;2023-03-08T03:56:21;96443.86;;;4.93;57.58
41306;BME280;27051;50.376;19.152;2023-03-08T03:58:49;96448.70;;;4.92;57.66
41306;BME280;27051;50.376;19.152;2023-03-08T04:01:23;96451.29;;;4.92;57.77
41306;BME280;27051;50.376;19.152;2023-03-08T04:03:51;96454.88;;;4.95;57.65
41306;BME280;27051;50.376;19.152;2023-03-08T04:06:23;96457.61;;;4.98;57.70
41306;BME280;27051;50.376;19.152;2023-03-08T04:09:00;96465.15;;;5.02;57.70
41306;BME280;27051;50.376;19.152;2023-03-08T04:11:30;96463.38;;;5.01;57.55
41306;BME280;27051;50.376;19.152;2023-03-08T04:13:57;96463.55;;;4.99;57.49
41306;BME280;27051;50.376;19.152;2023-03-08T04:16:26;96463.86;;;4.96;57.37
41306;BME280;27051;50.376;19.152;2023-03-08T04:18:55;96459.11;;;4.92;57.31
41306;BME280;27051;50.376;19.152;2023-03-08T04:21:23;96455.65;;;4.87;57.33
41306;BME280;27051;50.376;19.152;2023-03-08T04:23:49;96449.95;;;4.87;57.37
41306;BME280;27051;50.376;19.152;2023-03-08T04:26:16;96427.02;;;4.84;57.30
41306;BME280;27051;50.376;19.152;2023-03-08T04:28:42;96420.23;;;4.85;57.20
41306;BME280;27051;50.376;19.152;2023-03-08T04:31:17;96432.77;;;4.82;57.12
41306;BME280;27051;50.376;19.152;2023-03-08T04:33:44;96451.92;;;4.75;57.00
41306;BME280;27051;50.376;19.152;2023-03-08T04:36:11;96462.96;;;4.73;57.03
41306;BME280;27051;50.376;19.152;2023-03-08T04:38:38;96455.41;;;4.69;57.06
41306;BME280;27051;50.376;19.152;2023-03-08T04:41:06;96447.22;;;4.67;57.09
41306;BME280;27051;50.376;19.152;2023-03-08T04:43:33;96453.52;;;4.64;57.06
41306;BME280;27051;50.376;19.152;2023-03-08T04:46:01;96459.27;;;4.60;57.10
41306;BME280;27051;50.376;19.152;2023-03-08T04:48:29;96462.88;;;4.58;57.16
41306;BME280;27051;50.376;19.152;2023-03-08T04:50:58;96462.69;;;4.54;57.14
41306;BME280;27051;50.376;19.152;2023-03-08T04:53:26;96473.44;;;4.49;57.07
41306;BME280;27051;50.376;19.152;2023-03-08T04:55:53;96467.47;;;4.45;57.16
41306;BME280;27051;50.376;19.152;2023-03-08T04:58:20;96463.80;;;4.44;57.19
41306;BME280;27051;50.376;19.152;2023-03-08T05:00:47;96456.78;;;4.44;57.16
41306;BME280;27051;50.376;19.152;2023-03-08T05:03:14;96463.89;;;4.42;56.99
41306;BME280;27051;50.376;19.152;2023-03-08T05:05:45;96472.20;;;4.43;57.12
41306;BME280;27051;50.376;19.152;2023-03-08T05:08:12;96473.36;;;4.43;57.01
41306;BME280;27051;50.376;19.152;2023-03-08T05:10:38;96476.08;;;4.43;57.03
41306;BME280;27051;50.376;19.152;2023-03-08T05:13:05;96481.40;;;4.43;57.00
41306;BME280;27051;50.376;19.152;2023-03-08T05:15:31;96485.19;;;4.43;57.04
41306;BME280;27051;50.376;19.152;2023-03-08T05:17:58;96485.79;;;4.45;56.91
41306;BME280;27051;50.376;19.152;2023-03-08T05:20:24;96488.48;;;4.46;56.74
41306;BME280;27051;50.376;19.152;2023-03-08T05:22:51;96486.04;;;4.49;56.82
41306;BME280;27051;50.376;19.152;2023-03-08T05:25:17;96492.54;;;4.50;56.80
41306;BME280;27051;50.376;19.152;2023-03-08T05:27:44;96491.27;;;4.50;56.69
41306;BME280;27051;50.376;19.152;2023-03-08T05:30:11;96489.79;;;4.52;56.74
41306;BME280;27051;50.376;19.152;2023-03-08T05:32:37;96491.17;;;4.52;56.59
41306;BME280;27051;50.376;19.152;2023-03-08T05:35:04;96491.17;;;4.53;56.52
41306;BME280;27051;50.376;19.152;2023-03-08T05:37:30;96495.80;;;4.53;56.44
41306;BME280;27051;50.376;19.152;2023-03-08T05:39:57;96495.03;;;4.52;56.45
41306;BME280;27051;50.376;19.152;2023-03-08T05:42:23;96502.95;;;4.53;56.55
41306;BME280;27051;50.376;19.152;2023-03-08T05:44:49;96508.83;;;4.56;56.45
41306;BME280;27051;50.376;19.152;2023-03-08T05:47:16;96497.75;;;4.60;56.45
41306;BME280;27051;50.376;19.152;2023-03-08T05:49:42;96503.59;;;4.65;56.28
41306;BME280;27051;50.376;19.152;2023-03-08T05:52:09;96505.77;;;4.67;56.34
41306;BME280;27051;50.376;19.152;2023-03-08T05:54:35;96513.90;;;4.69;56.20
41306;BME280;27051;50.376;19.152;2023-03-08T05:57:01;96517.73;;;4.74;56.22
41306;BME280;27051;50.376;19.152;2023-03-08T05:59:28;96519.84;;;4.76;56.25
41306;BME280;27051;50.376;19.152;2023-03-08T06:01:54;96521.64;;;4.80;56.08
41306;BME280;27051;50.376;19.152;2023-03-08T06:04:21;96519.42;;;4.80;55.99
41306;BME280;27051;50.376;19.152;2023-03-08T06:06:47;96526.36;;;4.83;55.78
41306;BME280;27051;50.376;19.152;2023-03-08T06:09:14;96533.14;;;4.87;55.82
41306;BME280;27051;50.376;19.152;2023-03-08T06:11:40;96540.48;;;4.91;55.98
41306;BME280;27051;50.376;19.152;2023-03-08T06:14:07;96546.11;;;4.91;55.82
41306;BME280;27051;50.376;19.152;2023-03-08T06:16:33;96552.54;;;4.90;55.85
41306;BME280;27051;50.376;19.152;2023-03-08T06:19:01;96557.73;;;4.91;55.81
41306;BME280;27051;50.376;19.152;2023-03-08T06:21:27;96563.60;;;4.91;55.58
41306;BME280;27051;50.376;19.152;2023-03-08T06:23:54;96570.33;;;4.90;55.61
41306;BME280;27051;50.376;19.152;2023-03-08T06:26:20;96572.85;;;4.93;55.51
41306;BME280;27051;50.376;19.152;2023-03-08T06:28:47;96575.54;;;4.96;55.44
41306;BME280;27051;50.376;19.152;2023-03-08T06:31:15;96579.27;;;4.99;55.34
41306;BME280;27051;50.376;19.152;2023-03-08T06:33:42;96585.90;;;5.03;55.51
41306;BME280;27051;50.376;19.152;2023-03-08T06:36:14;96588.31;;;5.05;55.42
41306;BME280;27051;50.376;19.152;2023-03-08T06:38:42;96594.13;;;5.03;55.15
41306;BME280;27051;50.376;19.152;2023-03-08T06:41:09;96590.50;;;5.05;55.32
41306;BME280;27051;50.376;19.152;2023-03-08T06:43:37;96594.04;;;5.09;55.37
41306;BME280;27051;50.376;19.152;2023-03-08T06:46:05;96600.77;;;5.13;55.27
41306;BME280;27051;50.376;19.152;2023-03-08T06:48:33;96602.95;;;5.14;55.46
41306;BME280;27051;50.376;19.152;2023-03-08T06:51:00;96608.70;;;5.21;55.49
41306;BME280;27051;50.376;19.152;2023-03-08T06:53:26;96609.39;;;5.27;55.48
41306;BME280;27051;50.376;19.152;2023-03-08T06:55:53;96604.77;;;5.34;55.22
41306;BME280;27051;50.376;19.152;2023-03-08T06:58:19;96602.73;;;5.40;55.31
41306;BME280;27051;50.376;19.152;2023-03-08T07:00:46;96606.95;;;5.41;55.29
41306;BME280;27051;50.376;19.152;2023-03-08T07:03:13;96611.13;;;5.41;55.22
41306;BME280;27051;50.376;19.152;2023-03-08T07:05:40;96619.61;;;5.42;55.21
41306;BME280;27051;50.376;19.152;2023-03-08T07:08:07;96632.85;;;5.42;55.49
41306;BME280;27051;50.376;19.152;2023-03-08T07:10:33;96638.73;;;5.37;55.65
41306;BME280;27051;50.376;19.152;2023-03-08T07:13:00;96642.40;;;5.30;55.70
41306;BME280;27051;50.376;19.152;2023-03-08T07:15:26;96639.89;;;5.29;55.95
41306;BME280;27051;50.376;19.152;2023-03-08T07:17:54;96641.83;;;5.30;55.87
41306;BME280;27051;50.376;19.152;2023-03-08T07:20:23;96645.83;;;5.32;55.94
41306;BME280;27051;50.376;19.152;2023-03-08T07:22:50;96649.66;;;5.33;56.03
41306;BME280;27051;50.376;19.152;2023-03-08T07:25:18;96649.11;;;5.38;56.08
41306;BME280;27051;50.376;19.152;2023-03-08T07:27:45;96647.96;;;5.38;56.27
41306;BME280;27051;50.376;19.152;2023-03-08T07:30:13;96645.15;;;5.33;56.43
41306;BME280;27051;50.376;19.152;2023-03-08T07:32:40;96646.46;;;5.28;56.45
41306;BME280;27051;50.376;19.152;2023-03-08T07:35:09;96644.41;;;5.30;56.55
41306;BME280;27051;50.376;19.152;2023-03-08T07:37:36;96651.67;;;5.40;56.52
41306;BME280;27051;50.376;19.152;2023-03-08T07:40:03;96655.91;;;5.45;56.64
41306;BME280;27051;50.376;19.152;2023-03-08T07:42:30;96659.66;;;5.42;56.64
41306;BME280;27051;50.376;19.152;2023-03-08T07:44:57;96666.98;;;5.47;56.77
41306;BME280;27051;50.376;19.152;2023-03-08T07:47:24;96676.27;;;5.49;56.80
41306;BME280;27051;50.376;19.152;2023-03-08T07:49:50;96684.13;;;5.56;56.75
41306;BME280;27051;50.376;19.152;2023-03-08T07:52:17;96690.95;;;5.57;56.90
41306;BME280;27051;50.376;19.152;2023-03-08T07:54:43;96693.98;;;5.56;56.73
41306;BME280;27051;50.376;19.152;2023-03-08T07:57:13;96693.14;;;5.51;56.80
41306;BME280;27051;50.376;19.152;2023-03-08T07:59:41;96695.39;;;5.52;56.93
41306;BME280;27051;50.376;19.152;2023-03-08T08:02:12;96695.30;;;5.55;56.93
41306;BME280;27051;50.376;19.152;2023-03-08T08:04:39;96704.19;;;5.60;56.92
41306;BME280;27051;50.376;19.152;2023-03-08T08:07:11;96701.73;;;5.62;57.05
41306;BME280;27051;50.376;19.152;2023-03-08T08:09:37;96701.02;;;5.67;56.98
41306;BME280;27051;50.376;19.152;2023-03-08T08:12:04;96693.30;;;5.77;57.07
41306;BME280;27051;50.376;19.152;2023-03-08T08:14:31;96685.55;;;5.89;57.13
41306;BME280;27051;50.376;19.152;2023-03-08T08:16:58;96692.80;;;6.07;57.29
41306;BME280;27051;50.376;19.152;2023-03-08T08:19:24;96685.17;;;6.22;57.46
41306;BME280;27051;50.376;19.152;2023-03-08T08:21:51;96679.63;;;6.33;57.47
41306;BME280;27051;50.376;19.152;2023-03-08T08:24:18;96684.66;;;6.50;57.34
41306;BME280;27051;50.376;19.152;2023-03-08T08:26:45;96685.48;;;6.75;57.09
41306;BME280;27051;50.376;19.152;2023-03-08T08:29:12;96682.46;;;6.99;57.06
41306;BME280;27051;50.376;19.152;2023-03-08T08:31:39;96686.04;;;7.28;56.83
41306;BME280;27051;50.376;19.152;2023-03-08T08:34:05;96692.31;;;7.40;56.54
41306;BME280;27051;50.376;19.152;2023-03-08T08:36:32;96685.98;;;7.41;56.47
41306;BME280;27051;50.376;19.152;2023-03-08T08:38:59;96690.30;;;7.43;56.30
41306;BME280;27051;50.376;19.152;2023-03-08T08:41:26;96690.11;;;7.33;56.09
41306;BME280;27051;50.376;19.152;2023-03-08T08:43:52;96695.08;;;7.14;56.05
41306;BME280;27051;50.376;19.152;2023-03-08T08:46:19;96692.79;;;7.03;56.20
41306;BME280;27051;50.376;19.152;2023-03-08T08:48:45;96687.77;;;6.97;56.23
41306;BME280;27051;50.376;19.152;2023-03-08T08:51:12;96687.15;;;6.97;56.23
41306;BME280;27051;50.376;19.152;2023-03-08T08:53:39;96686.30;;;7.03;56.42
41306;BME280;27051;50.376;19.152;2023-03-08T08:56:13;96690.45;;;7.16;56.24
41306;BME280;27051;50.376;19.152;2023-03-08T08:58:41;96694.32;;;7.14;56.15
41306;BME280;27051;50.376;19.152;2023-03-08T09:01:19;96695.68;;;7.13;56.03
41306;BME280;27051;50.376;19.152;2023-03-08T09:03:47;96692.80;;;7.22;55.96
41306;BME280;27051;50.376;19.152;2023-03-08T09:06:15;96686.17;;;7.39;55.92
41306;BME280;27051;50.376;19.152;2023-03-08T09:08:42;96687.28;;;7.41;55.56
41306;BME280;27051;50.376;19.152;2023-03-08T09:11:09;96684.49;;;7.47;55.34
41306;BME280;27051;50.376;19.152;2023-03-08T09:13:36;96686.08;;;7.62;55.21
41306;BME280;27051;50.376;19.152;2023-03-08T09:16:03;96691.39;;;7.80;55.31
41306;BME280;27051;50.376;19.152;2023-03-08T09:18:30;96697.29;;;7.99;54.95
41306;BME280;27051;50.376;19.152;2023-03-08T09:20:59;96696.33;;;8.09;54.91
41306;BME280;27051;50.376;19.152;2023-03-08T09:23:30;96695.86;;;8.22;54.81
41306;BME280;27051;50.376;19.152;2023-03-08T09:25:57;96698.34;;;8.33;54.76
41306;BME280;27051;50.376;19.152;2023-03-08T09:28:23;96697.95;;;8.46;54.66
41306;BME280;27051;50.376;19.152;2023-03-08T09:30:50;96691.52;;;8.51;54.44
41306;BME280;27051;50.376;19.152;2023-03-08T09:33:16;96684.38;;;8.85;54.57
41306;BME280;27051;50.376;19.152;2023-03-08T09:35:43;96681.41;;;9.42;54.56
41306;BME280;27051;50.376;19.152;2023-03-08T09:38:10;96662.96;;;9.79;53.66
41306;BME280;27051;50.376;19.152;2023-03-08T09:40:44;96672.95;;;9.81;53.39
41306;BME280;27051;50.376;19.152;2023-03-08T09:43:26;96677.83;;;9.85;53.03
41306;BME280;27051;50.376;19.152;2023-03-08T09:45:53;96684.27;;;10.10;52.85
41306;BME280;27051;50.376;19.152;2023-03-08T09:48:24;96688.44;;;10.21;52.80
41306;BME280;27051;50.376;19.152;2023-03-08T09:51:03;96687.36;;;10.28;52.47
41306;BME280;27051;50.376;19.152;2023-03-08T09:53:48;96688.09;;;10.26;52.14
41306;BME280;27051;50.376;19.152;2023-03-08T09:56:27;96689.63;;;10.31;52.12
41306;BME280;27051;50.376;19.152;2023-03-08T09:58:59;96686.23;;;10.49;52.15
41306;BME280;27051;50.376;19.152;2023-03-08T10:04:09;96685.75;;;10.79;51.87
41306;BME280;27051;50.376;19.152;2023-03-08T10:09:34;96683.19;;;11.31;50.63
41306;BME280;27051;50.376;19.152;2023-03-08T10:12:29;96680.36;;;11.33;50.01
41306;BME280;27051;50.376;19.152;2023-03-08T10:15:13;96676.80;;;11.28;50.11
41306;BME280;27051;50.376;19.152;2023-03-08T10:17:46;96673.79;;;11.46;49.92
41306;BME280;27051;50.376;19.152;2023-03-08T10:20:19;96673.73;;;11.73;49.96
41306;BME280;27051;50.376;19.152;2023-03-08T10:22:55;96659.42;;;11.99;48.75
41306;BME280;27051;50.376;19.152;2023-03-08T10:25:26;96659.91;;;12.29;48.58
41306;BME280;27051;50.376;19.152;2023-03-08T10:27:55;96650.89;;;12.59;48.29
41306;BME280;27051;50.376;19.152;2023-03-08T10:30:25;96648.52;;;12.88;48.56
41306;BME280;27051;50.376;19.152;2023-03-08T10:32:57;96642.52;;;13.37;47.86
41306;BME280;27051;50.376;19.152;2023-03-08T10:35:54;96636.01;;;13.88;47.42
41306;BME280;27051;50.376;19.152;2023-03-08T10:38:22;96633.92;;;14.49;47.16
41306;BME280;27051;50.376;19.152;2023-03-08T10:41:13;96634.58;;;15.09;46.43
41306;BME280;27051;50.376;19.152;2023-03-08T10:43:46;96626.85;;;15.73;45.72
41306;BME280;27051;50.376;19.152;2023-03-08T10:46:16;96617.51;;;16.28;45.00
41306;BME280;27051;50.376;19.152;2023-03-08T10:48:44;96612.42;;;16.49;44.56
41306;BME280;27051;50.376;19.152;2023-03-08T10:51:28;96611.44;;;16.71;44.41
41306;BME280;27051;50.376;19.152;2023-03-08T10:53:57;96617.77;;;16.86;43.41
41306;BME280;27051;50.376;19.152;2023-03-08T10:59:05;96614.58;;;16.51;42.08
41306;BME280;27051;50.376;19.152;2023-03-08T11:01:34;96609.09;;;16.50;42.28
41306;BME280;27051;50.376;19.152;2023-03-08T11:06:33;96614.24;;;17.12;42.00
41306;BME280;27051;50.376;19.152;2023-03-08T11:09:02;96607.10;;;18.00;41.49
41306;BME280;27051;50.376;19.152;2023-03-08T11:11:39;96604.15;;;18.88;41.17
41306;BME280;27051;50.376;19.152;2023-03-08T11:14:10;96602.27;;;19.80;39.89
41306;BME280;27051;50.376;19.152;2023-03-08T11:16:54;96593.05;;;20.04;38.24
41306;BME280;27051;50.376;19.152;2023-03-08T11:28:04;96586.70;;;16.17;37.94
41306;BME280;27051;50.376;19.152;2023-03-08T11:36:35;96573.20;;;14.08;38.83
41306;BME280;27051;50.376;19.152;2023-03-08T11:41:50;96564.95;;;13.39;39.38
41306;BME280;27051;50.376;19.152;2023-03-08T11:50:28;96563.16;;;12.37;39.91
41306;BME280;27051;50.376;19.152;2023-03-08T12:01:12;96565.88;;;11.37;40.91
41306;BME280;27051;50.376;19.152;2023-03-08T12:03:44;96561.30;;;11.21;41.04
41306;BME280;27051;50.376;19.152;2023-03-08T12:06:19;96556.26;;;11.08;40.57
41306;BME280;27051;50.376;19.152;2023-03-08T12:11:43;96541.11;;;11.00;40.64
41306;BME280;27051;50.376;19.152;2023-03-08T12:14:17;96535.93;;;10.93;40.73
41306;BME280;27051;50.376;19.152;2023-03-08T12:19:48;96527.04;;;10.98;40.70
41306;BME280;27051;50.376;19.152;2023-03-08T12:25:31;96513.69;;;12.05;40.54
41306;BME280;27051;50.376;19.152;2023-03-08T12:28:22;96508.40;;;14.07;39.25
41306;BME280;27051;50.376;19.152;2023-03-08T12:33:27;96498.48;;;16.92;37.15
41306;BME280;27051;50.376;19.152;2023-03-08T12:35:58;96497.71;;;17.52;35.23
41306;BME280;27051;50.376;19.152;2023-03-08T12:38:29;96489.85;;;17.81;34.60
41306;BME280;27051;50.376;19.152;2023-03-08T12:40:56;96488.89;;;18.16;35.23
41306;BME280;27051;50.376;19.152;2023-03-08T12:53:54;96494.94;;;16.00;34.00
41306;BME280;27051;50.376;19.152;2023-03-08T12:56:29;96483.67;;;15.21;34.58
41306;BME280;27051;50.376;19.152;2023-03-08T13:01:44;96484.40;;;14.42;35.30
41306;BME280;27051;50.376;19.152;2023-03-08T13:04:35;96487.54;;;14.14;35.22
41306;BME280;27051;50.376;19.152;2023-03-08T13:10:21;96480.88;;;13.35;35.86
41306;BME280;27051;50.376;19.152;2023-03-08T13:17:59;96470.30;;;12.41;36.30
41306;BME280;27051;50.376;19.152;2023-03-08T13:23:26;96466.65;;;11.89;36.48
41306;BME280;27051;50.376;19.152;2023-03-08T13:28:58;96461.25;;;11.21;36.48
41306;BME280;27051;50.376;19.152;2023-03-08T13:31:29;96458.98;;;10.99;36.65
41306;BME280;27051;50.376;19.152;2023-03-08T13:33:58;96454.20;;;10.83;36.79
41306;BME280;27051;50.376;19.152;2023-03-08T13:36:30;96455.38;;;10.66;36.84
41306;BME280;27051;50.376;19.152;2023-03-08T13:41:35;96443.73;;;10.48;37.01
41306;BME280;27051;50.376;19.152;2023-03-08T13:44:04;96438.10;;;10.40;37.27
41306;BME280;27051;50.376;19.152;2023-03-08T13:46:31;96431.09;;;10.37;37.37
41306;BME280;27051;50.376;19.152;2023-03-08T13:48:59;96427.47;;;10.33;37.28
41306;BME280;27051;50.376;19.152;2023-03-08T13:51:27;96425.48;;;10.38;37.48
41306;BME280;27051;50.376;19.152;2023-03-08T13:53:55;96420.84;;;10.45;37.46
41306;BME280;27051;50.376;19.152;2023-03-08T13:56:25;96422.11;;;10.58;37.65
41306;BME280;27051;50.376;19.152;2023-03-08T13:58:55;96417.77;;;10.73;37.22
41306;BME280;27051;50.376;19.152;2023-03-08T14:01:24;96415.20;;;10.89;37.24
41306;BME280;27051;50.376;19.152;2023-03-08T14:03:52;96411.38;;;11.01;36.89
41306;BME280;27051;50.376;19.152;2023-03-08T14:06:26;96409.67;;;10.99;36.94
41306;BME280;27051;50.376;19.152;2023-03-08T14:08:53;96406.29;;;10.91;36.74
41306;BME280;27051;50.376;19.152;2023-03-08T14:11:27;96398.20;;;10.75;36.78
41306;BME280;27051;50.376;19.152;2023-03-08T14:13:56;96399.17;;;10.59;36.84
41306;BME280;27051;50.376;19.152;2023-03-08T14:16:35;96395.91;;;10.46;37.20
41306;BME280;27051;50.376;19.152;2023-03-08T14:21:37;96379.84;;;10.22;36.70
41306;BME280;27051;50.376;19.152;2023-03-08T14:24:04;96372.88;;;10.08;36.88
41306;BME280;27051;50.376;19.152;2023-03-08T14:26:36;96362.40;;;9.94;36.94
41306;BME280;27051;50.376;19.152;2023-03-08T14:29:15;96366.20;;;9.86;37.01
41306;BME280;27051;50.376;19.152;2023-03-08T14:34:31;96355.55;;;9.75;37.28
41306;BME280;27051;50.376;19.152;2023-03-08T14:37:00;96356.22;;;9.72;37.51
41306;BME280;27051;50.376;19.152;2023-03-08T14:39:29;96350.98;;;9.65;37.68